Time;durP1;ratioP1;P1;durP2;ratioP2;P2;SDS_P1;SDS_P2;PMS_P1;PMS_P2;Temp;Humidity;BMP_temperature;BMP_pressure;BME280_temperature;BME280_humidity;BME280_pressure;Samples;Min_cycle;Max_cycle;Signal;HPM_P1;HPM_P2
2022/03/24 00:00:16;;;;;;;;;;;8.30;63.50;;;;;;5030424;28;19921;-79
2022/03/24 00:02:42;;;;;;;;;;;8.20;64.10;;;;;;5031349;28;19929;-80
2022/03/24 00:05:08;;;;;;;;;;;8.10;63.60;;;;;;5011267;28;19949;-81
2022/03/24 00:07:34;;;;;;;;;;;8.10;63.50;;;;;;5017810;28;19920;-81
2022/03/24 00:10:00;;;;;;;;;;;8.00;64.20;;;;;;5029350;28;19908;-79
2022/03/24 00:12:27;;;;;;;;;;;8.00;63.90;;;;;;5026861;28;19921;-81
2022/03/24 00:14:52;;;;;;;;;;;8.00;64.10;;;;;;5016780;28;19913;-81
2022/03/24 00:17:18;;;;;;;;;;;8.00;65.30;;;;;;5028407;28;20016;-81
2022/03/24 00:19:44;;;;;;;;;;;7.90;65.60;;;;;;5023058;28;19913;-80
2022/03/24 00:22:09;;;;;;;;;;;7.90;65.00;;;;;;5031256;28;19916;-80
2022/03/24 00:24:35;;;;;;;;;;;7.80;65.20;;;;;;5030934;28;19914;-79
2022/03/24 00:27:00;;;;;;;;;;;7.80;66.00;;;;;;5029893;28;19943;-81
2022/03/24 00:29:26;;;;;;;;;;;7.70;66.20;;;;;;5030100;28;19939;-81
2022/03/24 00:31:51;;;;;;;;;;;7.70;65.80;;;;;;5032734;28;19909;-82
2022/03/24 00:34:18;;;;;;;;;;;7.70;65.40;;;;;;5025659;28;20223;-82
2022/03/24 00:36:44;;;;;;;;;;;7.80;65.70;;;;;;5043877;28;19901;-80
2022/03/24 00:39:09;;;;;;;;;;;7.70;65.20;;;;;;5039970;28;20285;-81
2022/03/24 00:41:35;;;;;;;;;;;7.70;66.40;;;;;;5036041;28;19955;-82
2022/03/24 00:44:02;;;;;;;;;;;7.70;66.10;;;;;;5038937;28;19920;-82
2022/03/24 00:46:28;;;;;;;;;;;7.70;66.20;;;;;;5029409;28;19983;-81
2022/03/24 00:48:53;;;;;;;;;;;7.60;66.40;;;;;;5013637;28;19921;-81
2022/03/24 00:51:19;;;;;;;;;;;7.60;66.60;;;;;;5019166;28;19924;-82
2022/03/24 00:53:49;;;;;;;;;;;7.60;67.70;;;;;;5026326;28;19910;-81
2022/03/24 00:56:15;;;;;;;;;;;7.60;67.70;;;;;;5020717;28;19979;-81
2022/03/24 00:58:41;;;;;;;;;;;7.50;66.80;;;;;;5013470;28;19917;-81
2022/03/24 01:01:10;;;;;;;;;;;7.50;67.60;;;;;;5026537;28;19975;-81
2022/03/24 01:03:36;;;;;;;;;;;7.40;67.10;;;;;;5029076;28;19909;-81
2022/03/24 01:06:03;;;;;;;;;;;7.50;67.90;;;;;;5027061;28;20005;-81
2022/03/24 01:08:30;;;;;;;;;;;7.50;67.30;;;;;;5030941;28;19916;-81
2022/03/24 01:10:56;;;;;;;;;;;7.40;68.20;;;;;;5030899;28;19920;-81
2022/03/24 01:13:22;;;;;;;;;;;7.40;68.40;;;;;;5032204;28;20011;-81
2022/03/24 01:15:49;;;;;;;;;;;7.40;68.30;;;;;;5048643;28;19944;-81
2022/03/24 01:18:16;;;;;;;;;;;7.30;67.60;;;;;;5049639;28;19909;-80
2022/03/24 01:20:42;;;;;;;;;;;7.30;67.30;;;;;;5046645;28;19929;-79
2022/03/24 01:23:08;;;;;;;;;;;7.30;67.50;;;;;;5052277;28;19913;-80
2022/03/24 01:25:33;;;;;;;;;;;7.30;68.20;;;;;;5029949;28;20027;-81
2022/03/24 01:27:59;;;;;;;;;;;7.30;68.80;;;;;;5023298;28;20289;-81
2022/03/24 01:30:27;;;;;;;;;;;7.20;69.10;;;;;;5031239;28;19917;-81
2022/03/24 01:32:53;;;;;;;;;;;7.20;68.80;;;;;;5035509;28;19996;-81
2022/03/24 01:35:18;;;;;;;;;;;7.30;68.50;;;;;;5030144;28;19952;-81
2022/03/24 01:37:44;;;;;;;;;;;7.30;68.60;;;;;;5019484;28;19913;-81
2022/03/24 01:40:10;;;;;;;;;;;7.30;68.50;;;;;;5029382;28;19917;-80
2022/03/24 01:42:37;;;;;;;;;;;7.30;68.80;;;;;;5032966;28;19909;-80
2022/03/24 01:45:03;;;;;;;;;;;7.20;68.80;;;;;;5045880;28;20297;-81
2022/03/24 01:47:29;;;;;;;;;;;7.40;67.90;;;;;;5024878;28;19950;-81
2022/03/24 01:49:58;;;;;;;;;;;7.40;67.30;;;;;;5035097;28;19920;-81
2022/03/24 01:52:24;;;;;;;;;;;7.50;67.20;;;;;;5036300;28;19909;-81
2022/03/24 01:54:52;;;;;;;;;;;7.40;66.90;;;;;;5034191;28;19913;-79
2022/03/24 01:57:19;;;;;;;;;;;7.40;67.40;;;;;;5042257;28;20421;-78
2022/03/24 01:59:45;;;;;;;;;;;7.30;67.80;;;;;;5042576;28;19930;-80
2022/03/24 02:02:11;;;;;;;;;;;7.30;68.00;;;;;;5019817;28;19937;-81
2022/03/24 02:04:36;;;;;;;;;;;7.20;68.10;;;;;;5039050;28;19948;-80
2022/03/24 02:07:05;;;;;;;;;;;7.20;68.00;;;;;;5041220;28;19968;-81
2022/03/24 02:09:31;;;;;;;;;;;6.90;68.60;;;;;;5034194;28;19909;-80
2022/03/24 02:11:57;;;;;;;;;;;6.80;70.40;;;;;;5041906;28;19913;-80
2022/03/24 02:14:22;;;;;;;;;;;6.80;70.30;;;;;;5033317;28;19914;-80
2022/03/24 02:16:49;;;;;;;;;;;6.70;70.00;;;;;;5031533;28;19913;-81
2022/03/24 02:19:16;;;;;;;;;;;6.60;70.10;;;;;;5044165;28;19971;-81
2022/03/24 02:21:42;;;;;;;;;;;6.60;70.60;;;;;;5036214;28;19963;-81
2022/03/24 02:24:08;;;;;;;;;;;6.60;70.40;;;;;;5034254;28;19915;-81
2022/03/24 02:26:35;;;;;;;;;;;6.70;70.60;;;;;;5039980;28;19913;-81
2022/03/24 02:29:01;;;;;;;;;;;6.70;70.50;;;;;;5024705;28;19924;-80
2022/03/24 02:31:29;;;;;;;;;;;6.70;70.50;;;;;;5021533;28;19917;-81
2022/03/24 02:34:37;;;;;;;;;;;6.60;70.70;;;;;;5027961;28;19909;-81
2022/03/24 02:36:43;;;;;;;;;;;6.60;71.10;;;;;;5021972;28;20047;-81
2022/03/24 02:39:10;;;;;;;;;;;6.50;70.90;;;;;;5017964;28;19948;-81
2022/03/24 02:41:45;;;;;;;;;;;6.50;71.20;;;;;;5021703;28;19921;-81
2022/03/24 02:44:14;;;;;;;;;;;6.50;71.10;;;;;;5044641;28;20020;-81
2022/03/24 02:46:43;;;;;;;;;;;6.50;71.10;;;;;;5029304;28;19913;-81
2022/03/24 02:49:09;;;;;;;;;;;6.60;71.20;;;;;;5015866;28;19918;-81
2022/03/24 02:51:34;;;;;;;;;;;6.60;70.50;;;;;;5032802;28;19914;-81
2022/03/24 02:54:00;;;;;;;;;;;6.60;70.20;;;;;;5032898;28;20107;-81
2022/03/24 02:56:25;;;;;;;;;;;6.60;70.20;;;;;;5041780;28;20525;-81
2022/03/24 02:58:51;;;;;;;;;;;6.70;70.50;;;;;;5016584;28;20769;-81
2022/03/24 03:01:18;;;;;;;;;;;6.70;70.20;;;;;;5034273;28;20721;-80
2022/03/24 03:03:44;;;;;;;;;;;6.70;70.70;;;;;;5034168;28;19940;-81
2022/03/24 03:06:11;;;;;;;;;;;6.70;70.70;;;;;;5032308;28;19920;-81
2022/03/24 03:08:36;;;;;;;;;;;6.60;71.00;;;;;;5029448;28;19917;-81
2022/03/24 03:11:01;;;;;;;;;;;6.50;71.50;;;;;;5026962;28;19951;-81
2022/03/24 03:13:27;;;;;;;;;;;6.50;72.00;;;;;;5010699;28;19913;-80
2022/03/24 03:15:52;;;;;;;;;;;6.40;72.20;;;;;;5022414;28;19913;-79
2022/03/24 03:18:18;;;;;;;;;;;6.40;72.30;;;;;;5026734;28;20611;-80
2022/03/24 03:20:45;;;;;;;;;;;6.40;72.40;;;;;;5022184;28;19921;-80
2022/03/24 03:23:10;;;;;;;;;;;6.40;72.00;;;;;;5026599;28;20503;-80
2022/03/24 03:25:36;;;;;;;;;;;6.30;72.30;;;;;;5020178;28;19913;-80
2022/03/24 03:28:02;;;;;;;;;;;6.30;72.60;;;;;;5028325;28;19913;-80
2022/03/24 03:30:27;;;;;;;;;;;6.30;72.50;;;;;;5020277;28;20060;-80
2022/03/24 03:32:53;;;;;;;;;;;6.20;72.60;;;;;;5027660;28;19914;-81
2022/03/24 03:35:18;;;;;;;;;;;6.20;73.10;;;;;;5011530;28;20475;-80
2022/03/24 03:37:44;;;;;;;;;;;6.10;73.00;;;;;;5016493;28;19917;-80
2022/03/24 03:40:10;;;;;;;;;;;6.20;72.70;;;;;;5014104;28;19917;-80
2022/03/24 03:42:35;;;;;;;;;;;6.10;72.90;;;;;;5031103;28;20258;-80
2022/03/24 03:45:01;;;;;;;;;;;6.10;72.70;;;;;;5025760;28;19925;-79
2022/03/24 03:47:27;;;;;;;;;;;6.10;72.50;;;;;;5014943;28;20257;-80
2022/03/24 03:49:53;;;;;;;;;;;6.00;72.50;;;;;;5026156;28;19914;-80
2022/03/24 03:52:18;;;;;;;;;;;6.00;72.80;;;;;;5024104;28;20349;-80
2022/03/24 03:54:44;;;;;;;;;;;5.90;73.10;;;;;;5029597;28;19916;-80
2022/03/24 03:57:10;;;;;;;;;;;5.90;73.10;;;;;;5028301;28;19948;-80
2022/03/24 03:59:36;;;;;;;;;;;5.80;73.50;;;;;;5011290;28;19924;-80
2022/03/24 04:02:02;;;;;;;;;;;5.80;73.80;;;;;;5025504;28;19913;-80
2022/03/24 04:04:27;;;;;;;;;;;5.80;73.00;;;;;;5014855;28;19928;-80
2022/03/24 04:06:53;;;;;;;;;;;5.80;73.50;;;;;;5027221;28;19920;-80
2022/03/24 04:09:18;;;;;;;;;;;5.90;73.10;;;;;;5029138;28;20268;-81
2022/03/24 04:11:44;;;;;;;;;;;5.80;73.70;;;;;;5036251;28;20008;-80
2022/03/24 04:14:10;;;;;;;;;;;5.80;73.30;;;;;;5030255;28;20008;-80
2022/03/24 04:16:36;;;;;;;;;;;5.80;73.60;;;;;;5023563;28;19913;-80
2022/03/24 04:19:05;;;;;;;;;;;5.80;73.80;;;;;;5024058;28;20004;-80
2022/03/24 04:21:30;;;;;;;;;;;5.80;73.80;;;;;;5009309;28;20370;-80
2022/03/24 04:23:56;;;;;;;;;;;5.90;73.00;;;;;;5032742;28;19920;-80
2022/03/24 04:26:22;;;;;;;;;;;5.90;73.30;;;;;;5028735;28;19909;-80
2022/03/24 04:28:47;;;;;;;;;;;5.80;73.40;;;;;;5032581;28;19909;-80
2022/03/24 04:31:13;;;;;;;;;;;5.80;73.40;;;;;;5027337;28;19914;-80
2022/03/24 04:33:38;;;;;;;;;;;5.90;73.80;;;;;;5012825;28;19914;-81
2022/03/24 04:36:08;;;;;;;;;;;5.80;73.80;;;;;;5015011;28;19968;-80
2022/03/24 04:38:34;;;;;;;;;;;5.70;73.60;;;;;;5009414;28;19909;-81
2022/03/24 04:41:00;;;;;;;;;;;5.70;73.80;;;;;;5015102;28;19924;-80
2022/03/24 04:43:26;;;;;;;;;;;5.70;73.10;;;;;;5026104;28;19914;-80
2022/03/24 04:45:51;;;;;;;;;;;5.60;73.50;;;;;;5026865;28;19968;-81
2022/03/24 04:48:18;;;;;;;;;;;5.60;73.40;;;;;;5023758;28;20027;-80
2022/03/24 04:50:43;;;;;;;;;;;5.60;73.20;;;;;;5033283;28;20485;-80
2022/03/24 04:53:13;;;;;;;;;;;5.50;74.00;;;;;;5024427;28;19999;-80
2022/03/24 04:55:40;;;;;;;;;;;5.50;73.80;;;;;;5049880;28;19909;-80
2022/03/24 04:58:06;;;;;;;;;;;5.50;73.90;;;;;;5032073;28;19928;-80
2022/03/24 05:00:32;;;;;;;;;;;5.50;73.90;;;;;;5030275;28;19967;-79
2022/03/24 05:02:58;;;;;;;;;;;5.50;73.50;;;;;;5025920;28;19917;-79
2022/03/24 05:05:24;;;;;;;;;;;5.40;74.10;;;;;;5016047;28;20405;-80
2022/03/24 05:07:49;;;;;;;;;;;5.30;74.80;;;;;;5049403;28;19913;-80
2022/03/24 05:10:15;;;;;;;;;;;5.30;74.60;;;;;;5034130;28;19916;-80
2022/03/24 05:12:40;;;;;;;;;;;5.30;74.00;;;;;;5030061;28;20408;-81
2022/03/24 05:15:07;;;;;;;;;;;5.30;75.10;;;;;;5021295;28;20020;-80
2022/03/24 05:17:33;;;;;;;;;;;5.20;75.00;;;;;;5032511;28;20368;-81
2022/03/24 05:19:58;;;;;;;;;;;5.20;75.50;;;;;;5023551;28;20024;-80
2022/03/24 05:22:24;;;;;;;;;;;5.20;75.30;;;;;;5031888;28;19948;-80
2022/03/24 05:24:49;;;;;;;;;;;5.20;75.30;;;;;;5015855;28;19920;-80
2022/03/24 05:27:15;;;;;;;;;;;5.20;75.10;;;;;;5021310;28;19913;-81
2022/03/24 05:29:41;;;;;;;;;;;5.20;74.90;;;;;;5026301;28;19925;-80
2022/03/24 05:32:06;;;;;;;;;;;5.20;75.10;;;;;;5054099;28;19909;-80
2022/03/24 05:34:32;;;;;;;;;;;5.20;75.50;;;;;;5039337;28;19901;-79
2022/03/24 05:36:58;;;;;;;;;;;5.30;75.30;;;;;;5030949;28;20542;-80
2022/03/24 05:39:24;;;;;;;;;;;5.30;75.50;;;;;;5028384;28;19921;-80
2022/03/24 05:41:49;;;;;;;;;;;5.30;75.80;;;;;;5034677;28;19937;-81
2022/03/24 05:44:15;;;;;;;;;;;5.30;75.20;;;;;;5024198;28;20035;-80
2022/03/24 05:46:45;;;;;;;;;;;5.40;75.00;;;;;;5038444;28;19964;-81
2022/03/24 05:49:14;;;;;;;;;;;5.40;74.70;;;;;;5042026;28;19913;-82
2022/03/24 05:51:42;;;;;;;;;;;5.50;74.70;;;;;;5041463;28;19952;-82
2022/03/24 05:54:08;;;;;;;;;;;5.50;74.70;;;;;;5042725;28;19913;-81
2022/03/24 05:56:34;;;;;;;;;;;5.60;74.00;;;;;;5026843;28;19924;-81
2022/03/24 05:59:00;;;;;;;;;;;5.70;73.60;;;;;;5030060;28;19917;-81
2022/03/24 06:01:25;;;;;;;;;;;5.80;73.70;;;;;;5028987;28;19913;-80
2022/03/24 06:03:52;;;;;;;;;;;5.80;73.80;;;;;;5032457;28;20404;-80
2022/03/24 06:06:18;;;;;;;;;;;5.90;73.10;;;;;;5024950;28;19940;-81
2022/03/24 06:08:44;;;;;;;;;;;5.90;73.50;;;;;;5027689;28;19917;-81
2022/03/24 06:11:11;;;;;;;;;;;5.90;73.10;;;;;;5010296;28;20388;-82
2022/03/24 06:13:36;;;;;;;;;;;6.00;73.20;;;;;;5027114;28;20605;-80
2022/03/24 06:16:02;;;;;;;;;;;6.00;72.80;;;;;;5030840;28;19913;-80
2022/03/24 06:18:28;;;;;;;;;;;6.10;73.10;;;;;;5038923;28;19935;-80
2022/03/24 06:20:54;;;;;;;;;;;6.10;73.40;;;;;;5034223;28;19977;-81
2022/03/24 06:23:19;;;;;;;;;;;6.10;73.10;;;;;;5025932;28;20370;-80
2022/03/24 06:25:45;;;;;;;;;;;6.10;73.40;;;;;;5032098;28;19919;-80
2022/03/24 06:28:11;;;;;;;;;;;6.10;73.30;;;;;;5027352;28;19918;-80
2022/03/24 06:30:37;;;;;;;;;;;6.20;73.10;;;;;;5033592;28;19921;-80
2022/03/24 06:33:03;;;;;;;;;;;6.30;73.60;;;;;;5027417;28;19940;-79
2022/03/24 06:35:29;;;;;;;;;;;6.20;73.60;;;;;;5023772;28;19920;-81
2022/03/24 06:37:54;;;;;;;;;;;6.30;73.80;;;;;;5032990;28;20000;-80
2022/03/24 06:40:20;;;;;;;;;;;6.30;73.30;;;;;;5024578;28;19972;-78
2022/03/24 06:42:46;;;;;;;;;;;6.40;73.00;;;;;;5024635;28;19914;-79
2022/03/24 06:45:13;;;;;;;;;;;6.50;73.00;;;;;;5024074;28;19917;-80
2022/03/24 06:47:39;;;;;;;;;;;6.60;71.90;;;;;;5029757;28;20372;-80
2022/03/24 06:50:05;;;;;;;;;;;6.70;71.70;;;;;;5045866;28;19959;-81
2022/03/24 06:52:30;;;;;;;;;;;6.80;71.20;;;;;;5030194;28;20393;-80
2022/03/24 06:54:56;;;;;;;;;;;6.80;71.80;;;;;;5029285;28;19913;-79
2022/03/24 06:57:21;;;;;;;;;;;7.00;71.30;;;;;;5030319;28;19913;-80
2022/03/24 06:59:47;;;;;;;;;;;7.10;71.10;;;;;;5028941;28;20063;-79
2022/03/24 07:02:12;;;;;;;;;;;7.20;71.10;;;;;;5025212;28;19913;-80
2022/03/24 07:04:38;;;;;;;;;;;7.20;71.00;;;;;;5026674;28;19928;-80
2022/03/24 07:07:04;;;;;;;;;;;7.30;70.90;;;;;;5032051;28;19913;-80
2022/03/24 07:09:30;;;;;;;;;;;7.30;70.40;;;;;;5028834;28;19935;-81
2022/03/24 07:11:55;;;;;;;;;;;7.50;70.50;;;;;;5015446;28;19909;-80
2022/03/24 07:14:21;;;;;;;;;;;7.60;70.10;;;;;;5018467;28;19913;-80
2022/03/24 07:16:47;;;;;;;;;;;7.60;69.40;;;;;;5023555;28;20396;-81
2022/03/24 07:19:12;;;;;;;;;;;7.70;69.50;;;;;;5029014;28;19917;-81
2022/03/24 07:21:38;;;;;;;;;;;7.80;69.20;;;;;;5028446;28;19917;-80
2022/03/24 07:24:04;;;;;;;;;;;7.90;68.80;;;;;;5023608;28;19928;-80
2022/03/24 07:26:30;;;;;;;;;;;8.00;66.60;;;;;;5027031;28;19913;-80
2022/03/24 07:28:55;;;;;;;;;;;8.10;65.70;;;;;;5018055;28;20400;-81
2022/03/24 07:31:22;;;;;;;;;;;8.20;65.30;;;;;;5031109;28;20296;-80
2022/03/24 07:33:48;;;;;;;;;;;8.20;65.10;;;;;;5026038;28;20333;-80
2022/03/24 07:36:15;;;;;;;;;;;8.30;65.10;;;;;;5027562;28;19913;-78
2022/03/24 07:38:41;;;;;;;;;;;8.30;63.90;;;;;;5029680;28;19925;-79
2022/03/24 07:41:08;;;;;;;;;;;8.50;64.10;;;;;;5030846;28;19913;-80
2022/03/24 07:43:33;;;;;;;;;;;8.60;63.60;;;;;;5031330;28;19935;-80
2022/03/24 07:45:59;;;;;;;;;;;8.70;63.30;;;;;;5030892;28;20346;-79
2022/03/24 07:48:27;;;;;;;;;;;8.90;62.30;;;;;;5032154;28;19920;-79
2022/03/24 07:50:54;;;;;;;;;;;9.00;61.70;;;;;;5029699;28;20047;-79
2022/03/24 07:53:28;;;;;;;;;;;9.10;61.60;;;;;;5032278;28;19913;-80
2022/03/24 07:55:58;;;;;;;;;;;9.10;61.60;;;;;;5030274;28;19909;-80
2022/03/24 07:58:24;;;;;;;;;;;9.20;61.60;;;;;;5031525;28;20254;-80
2022/03/24 08:00:50;;;;;;;;;;;9.30;61.30;;;;;;5015601;28;20032;-80
2022/03/24 08:03:16;;;;;;;;;;;9.30;61.00;;;;;;5013589;28;20064;-80
2022/03/24 08:05:42;;;;;;;;;;;9.50;61.30;;;;;;5029719;28;19917;-80
2022/03/24 08:08:11;;;;;;;;;;;9.60;60.50;;;;;;5030118;28;19992;-80
2022/03/24 08:10:37;;;;;;;;;;;9.70;60.40;;;;;;5025684;28;19913;-80
2022/03/24 08:13:03;;;;;;;;;;;9.70;60.20;;;;;;5045515;28;19916;-80
2022/03/24 08:15:29;;;;;;;;;;;9.80;60.60;;;;;;5027374;28;19913;-80
2022/03/24 08:17:54;;;;;;;;;;;9.90;60.30;;;;;;5032300;28;19909;-80
2022/03/24 08:20:20;;;;;;;;;;;10.00;59.80;;;;;;5012899;28;19922;-80
2022/03/24 08:22:45;;;;;;;;;;;10.10;59.60;;;;;;5012973;28;20389;-80
2022/03/24 08:25:11;;;;;;;;;;;10.30;58.40;;;;;;5025287;28;19968;-80
2022/03/24 08:27:36;;;;;;;;;;;10.50;57.40;;;;;;5031314;28;20000;-80
2022/03/24 08:30:03;;;;;;;;;;;10.60;56.20;;;;;;5014094;28;20413;-79
2022/03/24 08:32:28;;;;;;;;;;;10.60;55.50;;;;;;5032323;28;19913;-80
2022/03/24 08:34:54;;;;;;;;;;;10.80;54.90;;;;;;5028845;28;19920;-79
2022/03/24 08:37:19;;;;;;;;;;;10.80;54.80;;;;;;5031957;28;19910;-80
2022/03/24 08:39:45;;;;;;;;;;;11.00;54.40;;;;;;5021217;28;20471;-79
2022/03/24 08:42:10;;;;;;;;;;;11.10;54.30;;;;;;5015801;28;19924;-80
2022/03/24 08:44:36;;;;;;;;;;;11.00;55.30;;;;;;5029887;28;19913;-80
2022/03/24 08:47:01;;;;;;;;;;;11.00;55.00;;;;;;5029344;28;20362;-80
2022/03/24 08:49:27;;;;;;;;;;;11.10;55.40;;;;;;5036323;28;19913;-78
2022/03/24 08:51:53;;;;;;;;;;;11.20;55.30;;;;;;5029766;28;19913;-79
2022/03/24 08:54:18;;;;;;;;;;;11.20;54.90;;;;;;5028948;28;20385;-78
2022/03/24 08:56:44;;;;;;;;;;;11.20;55.20;;;;;;5029918;28;20002;-81
2022/03/24 08:59:09;;;;;;;;;;;11.30;55.60;;;;;;5031989;28;20369;-80
2022/03/24 09:01:35;;;;;;;;;;;11.40;55.50;;;;;;5018750;28;20340;-81
2022/03/24 09:04:01;;;;;;;;;;;11.60;54.50;;;;;;5012053;28;19921;-79
2022/03/24 09:06:26;;;;;;;;;;;11.60;53.60;;;;;;5008828;28;19922;-80
2022/03/24 09:08:53;;;;;;;;;;;11.90;53.60;;;;;;5016933;28;19921;-80
2022/03/24 09:11:18;;;;;;;;;;;12.00;54.40;;;;;;5045894;28;19995;-80
2022/03/24 09:13:44;;;;;;;;;;;12.00;53.40;;;;;;5022588;28;20333;-78
2022/03/24 09:16:10;;;;;;;;;;;12.00;50.80;;;;;;5028457;28;19955;-78
2022/03/24 09:18:36;;;;;;;;;;;12.20;50.70;;;;;;5026758;28;19917;-80
2022/03/24 09:21:01;;;;;;;;;;;12.20;51.00;;;;;;5020011;28;19917;-79
2022/03/24 09:23:28;;;;;;;;;;;12.20;50.20;;;;;;5018366;28;20471;-80
2022/03/24 09:25:54;;;;;;;;;;;12.40;49.50;;;;;;5008998;28;19925;-79
2022/03/24 09:28:21;;;;;;;;;;;12.60;48.80;;;;;;5010633;28;20345;-80
2022/03/24 09:30:47;;;;;;;;;;;12.70;48.40;;;;;;5006866;28;19909;-79
2022/03/24 09:33:13;;;;;;;;;;;12.70;47.90;;;;;;5026171;28;19913;-80
2022/03/24 09:35:40;;;;;;;;;;;12.70;47.20;;;;;;5029907;28;19924;-80
2022/03/24 09:38:05;;;;;;;;;;;12.70;47.00;;;;;;5035958;28;19910;-79
2022/03/24 09:40:32;;;;;;;;;;;12.80;47.00;;;;;;5026651;28;19994;-80
2022/03/24 09:43:00;;;;;;;;;;;12.80;46.80;;;;;;5047218;28;20043;-78
2022/03/24 09:45:25;;;;;;;;;;;13.00;46.10;;;;;;5045995;28;19913;-80
2022/03/24 09:47:51;;;;;;;;;;;13.10;46.80;;;;;;5038246;28;20047;-81
2022/03/24 09:50:17;;;;;;;;;;;13.30;46.10;;;;;;5032916;28;19920;-80
2022/03/24 09:52:43;;;;;;;;;;;13.20;44.90;;;;;;5038495;28;19917;-80
2022/03/24 09:55:09;;;;;;;;;;;13.10;45.50;;;;;;5039602;28;19913;-80
2022/03/24 09:57:34;;;;;;;;;;;13.10;45.00;;;;;;5026894;28;19925;-81
2022/03/24 10:00:00;;;;;;;;;;;13.30;43.80;;;;;;5038657;28;19957;-80
2022/03/24 10:02:28;;;;;;;;;;;13.30;44.80;;;;;;5057587;28;19917;-80
2022/03/24 10:04:54;;;;;;;;;;;13.40;45.50;;;;;;5038237;28;19927;-80
2022/03/24 10:07:25;;;;;;;;;;;13.50;44.70;;;;;;5046064;28;19913;-81
2022/03/24 10:09:53;;;;;;;;;;;13.60;44.60;;;;;;5013919;28;19964;-80
2022/03/24 10:12:24;;;;;;;;;;;13.60;43.50;;;;;;5023612;28;20233;-80
2022/03/24 10:14:57;;;;;;;;;;;13.90;43.40;;;;;;5039107;28;19924;-81
2022/03/24 10:17:23;;;;;;;;;;;14.00;43.60;;;;;;5031745;28;19916;-81
2022/03/24 10:19:56;;;;;;;;;;;13.80;44.60;;;;;;5015735;28;19921;-82
2022/03/24 10:22:21;;;;;;;;;;;13.90;43.80;;;;;;5044494;28;19917;-79
2022/03/24 10:24:47;;;;;;;;;;;14.00;44.10;;;;;;5031883;28;19928;-82
2022/03/24 10:27:19;;;;;;;;;;;14.10;43.90;;;;;;5028147;28;19996;-82
2022/03/24 10:29:48;;;;;;;;;;;14.20;43.40;;;;;;5011122;28;19916;-79
2022/03/24 10:32:14;;;;;;;;;;;14.30;43.90;;;;;;5018769;28;20377;-82
2022/03/24 10:34:48;;;;;;;;;;;14.30;43.50;;;;;;5020230;28;19913;-81
2022/03/24 10:37:17;;;;;;;;;;;14.30;42.50;;;;;;5021682;28;19925;-81
2022/03/24 10:40:02;;;;;;;;;;;14.30;43.20;;;;;;5017163;28;19917;-80
2022/03/24 10:42:29;;;;;;;;;;;14.30;44.20;;;;;;5023873;28;19941;-80
2022/03/24 10:45:01;;;;;;;;;;;14.40;42.20;;;;;;5030823;28;20435;-82
2022/03/24 10:47:42;;;;;;;;;;;14.40;44.00;;;;;;5045144;28;19917;-80
2022/03/24 10:50:24;;;;;;;;;;;14.40;42.40;;;;;;5029510;28;19932;-81
2022/03/24 10:52:51;;;;;;;;;;;14.50;40.40;;;;;;5033840;28;19956;-81
2022/03/24 10:55:37;;;;;;;;;;;14.60;39.40;;;;;;5029831;28;20113;-80
2022/03/24 10:58:10;;;;;;;;;;;14.60;40.00;;;;;;5021231;28;19913;-80
2022/03/24 11:00:38;;;;;;;;;;;14.70;40.40;;;;;;5041878;28;19917;-79
2022/03/24 11:03:03;;;;;;;;;;;14.70;38.80;;;;;;5034545;28;19980;-80
2022/03/24 11:05:29;;;;;;;;;;;14.70;37.90;;;;;;5054791;28;20404;-80
2022/03/24 11:07:55;;;;;;;;;;;14.70;34.30;;;;;;5044715;28;19916;-81
2022/03/24 11:10:21;;;;;;;;;;;14.80;36.20;;;;;;5029691;28;19920;-80
2022/03/24 11:12:48;;;;;;;;;;;14.90;36.60;;;;;;5015512;28;19913;-82
2022/03/24 11:15:16;;;;;;;;;;;15.00;36.80;;;;;;5034892;28;19968;-80
2022/03/24 11:17:41;;;;;;;;;;;15.10;36.20;;;;;;5032780;28;20029;-80
2022/03/24 11:20:09;;;;;;;;;;;15.00;36.80;;;;;;5040949;28;19975;-81
2022/03/24 11:22:46;;;;;;;;;;;15.10;36.20;;;;;;5031756;28;20380;-81
2022/03/24 11:25:12;;;;;;;;;;;15.10;36.40;;;;;;5022444;28;20062;-80
2022/03/24 11:27:38;;;;;;;;;;;15.00;35.50;;;;;;5029177;28;20346;-79
2022/03/24 11:30:05;;;;;;;;;;;15.00;35.50;;;;;;5021769;28;19943;-82
2022/03/24 11:32:31;;;;;;;;;;;15.10;36.70;;;;;;5029232;28;19917;-80
2022/03/24 11:34:58;;;;;;;;;;;15.30;39.60;;;;;;5021529;28;19917;-80
2022/03/24 11:37:23;;;;;;;;;;;15.30;40.50;;;;;;5032040;28;20039;-80
2022/03/24 11:40:04;;;;;;;;;;;15.30;39.20;;;;;;5045537;28;19960;-81
2022/03/24 11:42:31;;;;;;;;;;;15.40;37.80;;;;;;5031867;28;19916;-81
2022/03/24 11:45:00;;;;;;;;;;;15.40;37.90;;;;;;5023097;28;19921;-79
2022/03/24 11:47:34;;;;;;;;;;;15.40;39.10;;;;;;5033511;28;19941;-81
2022/03/24 11:50:20;;;;;;;;;;;15.60;36.30;;;;;;5032376;28;20032;-80
2022/03/24 11:52:46;;;;;;;;;;;15.60;38.20;;;;;;5034760;28;19914;-80
2022/03/24 11:55:13;;;;;;;;;;;15.60;38.60;;;;;;5037837;28;19921;-80
2022/03/24 11:57:38;;;;;;;;;;;15.60;37.10;;;;;;5026626;28;19917;-83
2022/03/24 12:00:13;;;;;;;;;;;15.60;38.00;;;;;;5024987;28;19918;-82
2022/03/24 12:02:45;;;;;;;;;;;15.60;36.90;;;;;;5013221;28;19917;-84
2022/03/24 12:05:11;;;;;;;;;;;15.90;36.20;;;;;;5048363;28;19921;-82
2022/03/24 12:07:37;;;;;;;;;;;15.90;36.20;;;;;;5028797;28;19957;-83
2022/03/24 12:10:11;;;;;;;;;;;16.10;33.10;;;;;;5027529;28;20408;-81
2022/03/24 12:12:37;;;;;;;;;;;16.10;33.30;;;;;;5017911;28;20275;-82
2022/03/24 12:15:23;;;;;;;;;;;16.00;33.30;;;;;;5025989;28;19913;-79
2022/03/24 12:18:02;;;;;;;;;;;15.90;33.30;;;;;;5024459;28;19917;-83
2022/03/24 12:20:38;;;;;;;;;;;15.90;34.50;;;;;;5031732;28;19913;-81
2022/03/24 12:23:03;;;;;;;;;;;15.80;34.90;;;;;;5036900;28;19928;-82
2022/03/24 12:25:29;;;;;;;;;;;15.80;35.10;;;;;;5027090;28;19913;-82
2022/03/24 12:27:54;;;;;;;;;;;15.90;33.50;;;;;;5031653;28;19946;-83
2022/03/24 12:30:20;;;;;;;;;;;16.00;35.70;;;;;;5017587;28;19948;-77
2022/03/24 12:33:04;;;;;;;;;;;16.20;36.10;;;;;;5026697;28;20369;-77
2022/03/24 12:35:39;;;;;;;;;;;16.20;34.80;;;;;;5014701;28;19921;-82
2022/03/24 12:38:28;;;;;;;;;;;16.50;31.00;;;;;;5021044;28;19913;-83
2022/03/24 12:41:02;;;;;;;;;;;16.40;31.50;;;;;;5031087;28;20357;-83
2022/03/24 12:43:28;;;;;;;;;;;16.30;33.30;;;;;;5034461;28;20234;-83
2022/03/24 12:46:13;;;;;;;;;;;16.30;33.70;;;;;;5022374;28;19917;-83
2022/03/24 12:48:39;;;;;;;;;;;16.30;35.00;;;;;;5016685;28;20257;-83
2022/03/24 12:51:22;;;;;;;;;;;16.30;33.50;;;;;;5021712;28;19924;-79
2022/03/24 12:53:49;;;;;;;;;;;16.50;35.60;;;;;;5023117;28;19936;-78
2022/03/24 12:56:28;;;;;;;;;;;16.50;36.30;;;;;;5028338;28;19999;-79
2022/03/24 12:58:56;;;;;;;;;;;16.60;36.10;;;;;;5020090;28;19917;-78
2022/03/24 13:01:22;;;;;;;;;;;16.50;34.30;;;;;;5022658;28;20377;-78
2022/03/24 13:03:54;;;;;;;;;;;16.50;33.50;;;;;;5019171;28;19913;-79
2022/03/24 13:06:20;;;;;;;;;;;16.50;32.20;;;;;;5028760;28;19940;-78
2022/03/24 13:09:05;;;;;;;;;;;16.70;31.50;;;;;;5020901;28;20222;-78
2022/03/24 13:11:46;;;;;;;;;;;16.50;32.40;;;;;;5027740;28;19921;-79
2022/03/24 13:14:12;;;;;;;;;;;16.60;33.10;;;;;;5023851;28;19918;-79
2022/03/24 13:16:38;;;;;;;;;;;16.60;33.20;;;;;;5029905;28;19940;-79
2022/03/24 13:19:03;;;;;;;;;;;16.40;32.90;;;;;;5030828;28;20332;-79
2022/03/24 13:21:29;;;;;;;;;;;16.70;31.20;;;;;;5029704;28;19914;-79
2022/03/24 13:23:55;;;;;;;;;;;16.60;33.10;;;;;;5022400;28;19913;-83
2022/03/24 13:26:21;;;;;;;;;;;16.70;31.60;;;;;;5049567;28;20253;-81
2022/03/24 13:28:53;;;;;;;;;;;16.70;33.20;;;;;;5036923;28;19920;-84
2022/03/24 13:31:19;;;;;;;;;;;16.70;33.90;;;;;;5030174;28;19921;-80
2022/03/24 13:33:51;;;;;;;;;;;16.70;33.10;;;;;;5030518;28;19926;-78
2022/03/24 13:36:19;;;;;;;;;;;16.60;34.30;;;;;;5032092;28;19994;-79
2022/03/24 13:38:44;;;;;;;;;;;16.70;33.50;;;;;;5037014;28;19920;-80
2022/03/24 13:41:10;;;;;;;;;;;16.80;32.80;;;;;;5034647;28;19917;-79
2022/03/24 13:43:35;;;;;;;;;;;17.00;31.90;;;;;;5035820;28;19992;-78
2022/03/24 13:46:01;;;;;;;;;;;16.80;32.20;;;;;;5045656;28;19917;-79
2022/03/24 13:48:27;;;;;;;;;;;16.70;31.60;;;;;;5034867;28;19920;-79
2022/03/24 13:50:57;;;;;;;;;;;16.50;31.30;;;;;;5035577;28;19921;-79
2022/03/24 13:53:27;;;;;;;;;;;16.50;31.50;;;;;;5035215;28;19913;-80
2022/03/24 13:56:04;;;;;;;;;;;16.50;31.60;;;;;;5031958;28;20369;-79
2022/03/24 13:58:30;;;;;;;;;;;16.50;31.90;;;;;;5030660;28;20626;-78
2022/03/24 14:01:03;;;;;;;;;;;16.40;31.50;;;;;;5042799;28;19984;-79
2022/03/24 14:03:29;;;;;;;;;;;16.40;32.20;;;;;;5041440;28;19923;-79
2022/03/24 14:06:07;;;;;;;;;;;16.30;32.70;;;;;;5044111;28;19916;-78
2022/03/24 14:08:36;;;;;;;;;;;16.50;31.90;;;;;;5056624;28;19988;-78
2022/03/24 14:11:21;;;;;;;;;;;16.60;31.20;;;;;;5061947;28;19952;-79
2022/03/24 14:13:50;;;;;;;;;;;16.70;30.80;;;;;;5046389;28;19912;-79
2022/03/24 14:16:27;;;;;;;;;;;16.90;30.80;;;;;;5049418;28;19913;-78
2022/03/24 14:19:05;;;;;;;;;;;17.10;30.20;;;;;;5033292;28;19913;-78
2022/03/24 14:21:38;;;;;;;;;;;17.30;29.80;;;;;;5033860;28;19924;-78
2022/03/24 14:24:03;;;;;;;;;;;16.90;30.40;;;;;;5025467;28;19920;-79